createdAt,value
2022-11-25T00:03:31.000Z,-66
2022-11-25T00:18:08.000Z,-67
2022-11-25T00:32:45.000Z,-67
2022-11-25T00:47:22.000Z,-67
2022-11-25T01:01:58.000Z,-66
2022-11-25T01:16:35.000Z,-65
2022-11-25T01:31:04.000Z,-69
2022-11-25T01:45:41.000Z,-66
2022-11-25T02:00:18.000Z,-67
2022-11-25T02:14:56.000Z,-65
2022-11-25T02:29:34.000Z,-66
2022-11-25T02:44:12.000Z,-66
2022-11-25T02:58:49.000Z,-68
2022-11-25T03:13:26.000Z,-66
2022-11-25T03:28:04.000Z,-67
2022-11-25T03:42:35.000Z,-67
2022-11-25T03:57:05.000Z,-66
2022-11-25T04:11:39.000Z,-67
2022-11-25T04:26:17.000Z,-64
2022-11-25T04:40:54.000Z,-65
2022-11-25T04:55:30.000Z,-65
2022-11-25T05:10:02.000Z,-66
2022-11-25T05:24:39.000Z,-66
2022-11-25T05:39:17.000Z,-65
2022-11-25T05:53:52.000Z,-65
2022-11-25T06:08:30.000Z,-65
2022-11-25T06:23:07.000Z,-66
2022-11-25T06:37:42.000Z,-64
2022-11-25T06:52:20.000Z,-65
2022-11-25T07:06:50.000Z,-67
2022-11-25T07:21:28.000Z,-66
2022-11-25T07:36:06.000Z,-65
2022-11-25T07:50:43.000Z,-67
2022-11-25T08:05:20.000Z,-66
2022-11-25T08:19:54.000Z,-65
2022-11-25T08:34:32.000Z,-66
2022-11-25T08:49:03.000Z,-68
2022-11-25T09:03:39.000Z,-68
2022-11-25T09:18:16.000Z,-69
2022-11-25T09:32:54.000Z,-67
2022-11-25T09:47:31.000Z,-67
2022-11-25T10:02:29.000Z,-67
2022-11-25T10:17:16.000Z,-71
2022-11-25T10:31:58.000Z,-70
2022-11-25T10:36:54.000Z,-67
2022-11-25T10:51:34.000Z,-69
2022-11-25T11:05:57.000Z,-71
2022-11-25T11:20:28.000Z,-67
2022-11-25T11:25:21.000Z,-74
2022-11-25T11:30:16.000Z,-68
2022-11-25T11:35:11.000Z,-67
2022-11-25T11:40:05.000Z,-71
2022-11-25T11:45:05.000Z,-73
2022-11-25T11:59:29.000Z,-71
2022-11-25T12:14:12.000Z,-68
2022-11-25T12:19:08.000Z,-66
2022-11-25T12:24:03.000Z,-68
2022-11-25T12:28:55.000Z,-69
2022-11-25T12:43:14.000Z,-71
2022-11-25T12:57:43.000Z,-66
2022-11-25T13:12:11.000Z,-67
2022-11-25T13:26:50.000Z,-67
2022-11-25T13:41:26.000Z,-67
2022-11-25T13:56:04.000Z,-68
2022-11-25T14:10:40.000Z,-68
2022-11-25T14:25:17.000Z,-68
2022-11-25T14:39:55.000Z,-65
2022-11-25T14:54:29.000Z,-68
2022-11-25T15:09:03.000Z,-68
2022-11-25T15:23:39.000Z,-68
2022-11-25T15:38:15.000Z,-67
2022-11-25T15:52:53.000Z,-69
2022-11-25T16:07:30.000Z,-66
2022-11-25T16:22:07.000Z,-67
2022-11-25T16:36:41.000Z,-65
2022-11-25T16:51:18.000Z,-69
2022-11-25T17:05:55.000Z,-64
2022-11-25T17:20:33.000Z,-64
2022-11-25T17:35:08.000Z,-68
2022-11-25T17:49:45.000Z,-62
2022-11-25T18:04:23.000Z,-62
2022-11-25T18:18:56.000Z,-63
2022-11-25T18:33:33.000Z,-63
2022-11-25T18:48:09.000Z,-63
2022-11-25T19:02:45.000Z,-61
2022-11-25T19:17:23.000Z,-65
2022-11-25T19:31:59.000Z,-63
2022-11-25T19:46:37.000Z,-63
2022-11-25T20:01:07.000Z,-63
2022-11-25T20:15:40.000Z,-63
2022-11-25T20:30:17.000Z,-62
2022-11-25T20:44:53.000Z,-62
2022-11-25T20:59:29.000Z,-64
2022-11-25T21:14:06.000Z,-63
2022-11-25T21:28:42.000Z,-63
2022-11-25T21:43:19.000Z,-62
2022-11-25T21:57:57.000Z,-63
2022-11-25T22:12:30.000Z,-63
2022-11-25T22:27:07.000Z,-63
2022-11-25T22:41:44.000Z,-62
2022-11-25T22:56:22.000Z,-64
2022-11-25T23:10:56.000Z,-63
2022-11-25T23:25:33.000Z,-65
2022-11-25T23:40:06.000Z,-63
2022-11-25T23:54:41.000Z,-63
